sensor_id;sensor_type;location;lat;lon;timestamp;P1;durP1;ratioP1;P2;durP2;ratioP2
60979;SDS011;46851;49.160;8.980;2022-07-21T00:00:55;26.02;;;18.17;;
60979;SDS011;46851;49.160;8.980;2022-07-21T00:03:21;24.75;;;18.52;;
60979;SDS011;46851;49.160;8.980;2022-07-21T00:05:48;22.02;;;18.05;;
60979;SDS011;46851;49.160;8.980;2022-07-21T00:08:14;23.85;;;18.50;;
60979;SDS011;46851;49.160;8.980;2022-07-21T00:10:40;25.05;;;19.98;;
60979;SDS011;46851;49.160;8.980;2022-07-21T00:13:06;27.17;;;19.77;;
60979;SDS011;46851;49.160;8.980;2022-07-21T00:15:32;26.15;;;18.67;;
60979;SDS011;46851;49.160;8.980;2022-07-21T00:17:58;25.73;;;18.95;;
60979;SDS011;46851;49.160;8.980;2022-07-21T00:20:24;27.10;;;20.40;;
60979;SDS011;46851;49.160;8.980;2022-07-21T00:22:52;30.13;;;20.73;;
60979;SDS011;46851;49.160;8.980;2022-07-21T00:25:18;31.42;;;19.92;;
60979;SDS011;46851;49.160;8.980;2022-07-21T00:27:45;28.95;;;20.70;;
60979;SDS011;46851;49.160;8.980;2022-07-21T00:30:11;28.73;;;21.17;;
60979;SDS011;46851;49.160;8.980;2022-07-21T00:32:38;33.65;;;22.15;;
60979;SDS011;46851;49.160;8.980;2022-07-21T00:35:04;24.80;;;20.75;;
60979;SDS011;46851;49.160;8.980;2022-07-21T00:37:31;29.98;;;20.17;;
60979;SDS011;46851;49.160;8.980;2022-07-21T00:39:57;34.45;;;23.05;;
60979;SDS011;46851;49.160;8.980;2022-07-21T00:42:23;29.85;;;22.20;;
60979;SDS011;46851;49.160;8.980;2022-07-21T00:44:50;30.23;;;21.30;;
60979;SDS011;46851;49.160;8.980;2022-07-21T00:47:20;30.25;;;21.27;;
60979;SDS011;46851;49.160;8.980;2022-07-21T00:49:46;31.20;;;20.77;;
60979;SDS011;46851;49.160;8.980;2022-07-21T00:52:12;30.77;;;21.15;;
60979;SDS011;46851;49.160;8.980;2022-07-21T00:54:38;29.20;;;21.15;;
60979;SDS011;46851;49.160;8.980;2022-07-21T00:57:04;30.02;;;20.63;;
60979;SDS011;46851;49.160;8.980;2022-07-21T00:59:31;30.63;;;20.77;;
60979;SDS011;46851;49.160;8.980;2022-07-21T01:01:57;25.42;;;19.30;;
60979;SDS011;46851;49.160;8.980;2022-07-21T01:04:23;26.35;;;19.73;;
60979;SDS011;46851;49.160;8.980;2022-07-21T01:06:49;27.63;;;20.60;;
60979;SDS011;46851;49.160;8.980;2022-07-21T01:09:15;28.60;;;20.30;;
60979;SDS011;46851;49.160;8.980;2022-07-21T01:11:41;26.95;;;19.48;;
60979;SDS011;46851;49.160;8.980;2022-07-21T01:14:07;27.10;;;20.27;;
60979;SDS011;46851;49.160;8.980;2022-07-21T01:16:33;28.65;;;21.13;;
60979;SDS011;46851;49.160;8.980;2022-07-21T01:18:59;27.77;;;20.38;;
60979;SDS011;46851;49.160;8.980;2022-07-21T01:21:33;26.13;;;20.80;;
60979;SDS011;46851;49.160;8.980;2022-07-21T01:24:00;27.23;;;20.88;;
60979;SDS011;46851;49.160;8.980;2022-07-21T01:26:26;29.92;;;20.08;;
60979;SDS011;46851;49.160;8.980;2022-07-21T01:28:52;30.02;;;20.05;;
60979;SDS011;46851;49.160;8.980;2022-07-21T01:31:19;29.52;;;20.45;;
60979;SDS011;46851;49.160;8.980;2022-07-21T01:33:45;27.40;;;20.17;;
60979;SDS011;46851;49.160;8.980;2022-07-21T01:36:11;28.77;;;20.33;;
60979;SDS011;46851;49.160;8.980;2022-07-21T01:38:37;27.40;;;20.08;;
60979;SDS011;46851;49.160;8.980;2022-07-21T01:41:21;25.05;;;20.10;;
60979;SDS011;46851;49.160;8.980;2022-07-21T01:44:04;28.88;;;20.23;;
60979;SDS011;46851;49.160;8.980;2022-07-21T01:46:33;28.98;;;20.05;;
60979;SDS011;46851;49.160;8.980;2022-07-21T01:48:59;27.10;;;20.27;;
60979;SDS011;46851;49.160;8.980;2022-07-21T01:51:25;28.15;;;20.58;;
60979;SDS011;46851;49.160;8.980;2022-07-21T01:53:52;25.27;;;19.35;;
60979;SDS011;46851;49.160;8.980;2022-07-21T01:56:18;26.88;;;20.15;;
60979;SDS011;46851;49.160;8.980;2022-07-21T01:58:46;26.58;;;21.17;;
60979;SDS011;46851;49.160;8.980;2022-07-21T02:01:12;26.35;;;20.08;;
60979;SDS011;46851;49.160;8.980;2022-07-21T02:03:38;23.45;;;18.95;;
60979;SDS011;46851;49.160;8.980;2022-07-21T02:06:04;21.83;;;18.05;;
60979;SDS011;46851;49.160;8.980;2022-07-21T02:08:31;22.05;;;17.75;;
60979;SDS011;46851;49.160;8.980;2022-07-21T02:10:57;22.90;;;17.08;;
60979;SDS011;46851;49.160;8.980;2022-07-21T02:13:23;22.98;;;17.38;;
60979;SDS011;46851;49.160;8.980;2022-07-21T02:15:49;20.73;;;17.10;;
60979;SDS011;46851;49.160;8.980;2022-07-21T02:18:16;24.65;;;16.95;;
60979;SDS011;46851;49.160;8.980;2022-07-21T02:20:42;21.67;;;16.42;;
60979;SDS011;46851;49.160;8.980;2022-07-21T02:23:10;23.02;;;16.90;;
60979;SDS011;46851;49.160;8.980;2022-07-21T02:25:36;22.95;;;16.23;;
60979;SDS011;46851;49.160;8.980;2022-07-21T02:28:02;23.48;;;16.30;;
60979;SDS011;46851;49.160;8.980;2022-07-21T02:30:28;23.33;;;16.35;;
60979;SDS011;46851;49.160;8.980;2022-07-21T02:32:54;20.38;;;15.18;;
60979;SDS011;46851;49.160;8.980;2022-07-21T02:35:20;18.65;;;14.35;;
60979;SDS011;46851;49.160;8.980;2022-07-21T02:37:46;22.35;;;14.93;;
60979;SDS011;46851;49.160;8.980;2022-07-21T02:40:12;18.90;;;14.32;;
60979;SDS011;46851;49.160;8.980;2022-07-21T02:42:38;20.05;;;15.75;;
60979;SDS011;46851;49.160;8.980;2022-07-21T02:45:08;24.70;;;16.38;;
60979;SDS011;46851;49.160;8.980;2022-07-21T02:47:57;22.05;;;17.50;;
60979;SDS011;46851;49.160;8.980;2022-07-21T02:50:25;25.88;;;18.00;;
60979;SDS011;46851;49.160;8.980;2022-07-21T02:52:58;24.52;;;18.05;;
60979;SDS011;46851;49.160;8.980;2022-07-21T02:55:25;25.92;;;19.08;;
60979;SDS011;46851;49.160;8.980;2022-07-21T02:58:11;24.77;;;19.35;;
60979;SDS011;46851;49.160;8.980;2022-07-21T03:00:38;27.65;;;19.38;;
60979;SDS011;46851;49.160;8.980;2022-07-21T03:03:05;27.33;;;20.13;;
60979;SDS011;46851;49.160;8.980;2022-07-21T03:05:31;26.52;;;18.63;;
60979;SDS011;46851;49.160;8.980;2022-07-21T03:07:58;27.15;;;20.13;;
60979;SDS011;46851;49.160;8.980;2022-07-21T03:10:24;24.65;;;19.80;;
60979;SDS011;46851;49.160;8.980;2022-07-21T03:12:50;25.65;;;19.17;;
60979;SDS011;46851;49.160;8.980;2022-07-21T03:15:16;27.45;;;20.52;;
60979;SDS011;46851;49.160;8.980;2022-07-21T03:17:42;25.42;;;19.13;;
60979;SDS011;46851;49.160;8.980;2022-07-21T03:20:08;29.05;;;19.60;;
60979;SDS011;46851;49.160;8.980;2022-07-21T03:22:34;23.65;;;18.45;;
60979;SDS011;46851;49.160;8.980;2022-07-21T03:25:00;24.40;;;18.55;;
60979;SDS011;46851;49.160;8.980;2022-07-21T03:27:26;26.42;;;19.65;;
60979;SDS011;46851;49.160;8.980;2022-07-21T03:29:52;26.35;;;19.98;;
60979;SDS011;46851;49.160;8.980;2022-07-21T03:32:18;24.92;;;19.08;;
60979;SDS011;46851;49.160;8.980;2022-07-21T03:34:44;23.80;;;19.48;;
60979;SDS011;46851;49.160;8.980;2022-07-21T03:37:11;25.85;;;18.52;;
60979;SDS011;46851;49.160;8.980;2022-07-21T03:39:37;26.13;;;18.95;;
60979;SDS011;46851;49.160;8.980;2022-07-21T03:42:03;26.52;;;18.02;;
60979;SDS011;46851;49.160;8.980;2022-07-21T03:44:29;24.50;;;19.88;;
60979;SDS011;46851;49.160;8.980;2022-07-21T03:46:55;26.95;;;19.02;;
60979;SDS011;46851;49.160;8.980;2022-07-21T03:49:23;27.60;;;19.80;;
60979;SDS011;46851;49.160;8.980;2022-07-21T03:51:49;23.17;;;18.60;;
60979;SDS011;46851;49.160;8.980;2022-07-21T03:54:16;23.50;;;19.02;;
60979;SDS011;46851;49.160;8.980;2022-07-21T03:56:42;25.65;;;19.80;;
60979;SDS011;46851;49.160;8.980;2022-07-21T03:59:08;24.10;;;19.15;;
60979;SDS011;46851;49.160;8.980;2022-07-21T04:01:34;24.48;;;18.90;;
60979;SDS011;46851;49.160;8.980;2022-07-21T04:04:00;26.25;;;19.15;;
60979;SDS011;46851;49.160;8.980;2022-07-21T04:06:25;26.90;;;19.33;;
60979;SDS011;46851;49.160;8.980;2022-07-21T04:08:52;26.02;;;20.02;;
60979;SDS011;46851;49.160;8.980;2022-07-21T04:11:17;28.45;;;20.83;;
60979;SDS011;46851;49.160;8.980;2022-07-21T04:13:43;27.27;;;19.80;;
60979;SDS011;46851;49.160;8.980;2022-07-21T04:16:09;25.85;;;19.52;;
60979;SDS011;46851;49.160;8.980;2022-07-21T04:18:35;25.55;;;20.25;;
60979;SDS011;46851;49.160;8.980;2022-07-21T04:21:01;26.70;;;20.20;;
60979;SDS011;46851;49.160;8.980;2022-07-21T04:23:28;25.83;;;19.10;;
60979;SDS011;46851;49.160;8.980;2022-07-21T04:25:54;24.63;;;20.20;;
60979;SDS011;46851;49.160;8.980;2022-07-21T04:28:20;28.73;;;19.88;;
60979;SDS011;46851;49.160;8.980;2022-07-21T04:30:46;26.15;;;19.90;;
60979;SDS011;46851;49.160;8.980;2022-07-21T04:33:12;26.73;;;19.38;;
60979;SDS011;46851;49.160;8.980;2022-07-21T04:35:38;27.17;;;20.00;;
60979;SDS011;46851;49.160;8.980;2022-07-21T04:38:04;25.27;;;20.13;;
60979;SDS011;46851;49.160;8.980;2022-07-21T04:40:30;22.73;;;19.40;;
60979;SDS011;46851;49.160;8.980;2022-07-21T04:42:56;27.98;;;20.73;;
60979;SDS011;46851;49.160;8.980;2022-07-21T04:45:22;24.45;;;19.70;;
60979;SDS011;46851;49.160;8.980;2022-07-21T04:47:49;26.00;;;20.17;;
60979;SDS011;46851;49.160;8.980;2022-07-21T04:50:16;22.70;;;19.65;;
60979;SDS011;46851;49.160;8.980;2022-07-21T04:52:43;28.88;;;21.40;;
60979;SDS011;46851;49.160;8.980;2022-07-21T04:55:09;28.58;;;20.60;;
60979;SDS011;46851;49.160;8.980;2022-07-21T04:57:39;29.25;;;20.25;;
60979;SDS011;46851;49.160;8.980;2022-07-21T05:00:06;26.42;;;21.35;;
60979;SDS011;46851;49.160;8.980;2022-07-21T05:02:32;29.17;;;21.17;;
60979;SDS011;46851;49.160;8.980;2022-07-21T05:04:58;31.88;;;20.88;;
60979;SDS011;46851;49.160;8.980;2022-07-21T05:07:26;30.92;;;21.73;;
60979;SDS011;46851;49.160;8.980;2022-07-21T05:10:01;26.15;;;19.77;;
60979;SDS011;46851;49.160;8.980;2022-07-21T05:12:28;30.70;;;21.10;;
60979;SDS011;46851;49.160;8.980;2022-07-21T05:14:54;31.20;;;22.67;;
60979;SDS011;46851;49.160;8.980;2022-07-21T05:17:23;28.70;;;21.30;;
60979;SDS011;46851;49.160;8.980;2022-07-21T05:19:49;26.50;;;20.27;;
60979;SDS011;46851;49.160;8.980;2022-07-21T05:22:32;23.13;;;19.42;;
60979;SDS011;46851;49.160;8.980;2022-07-21T05:25:01;26.42;;;19.35;;
60979;SDS011;46851;49.160;8.980;2022-07-21T05:27:31;22.83;;;18.40;;
60979;SDS011;46851;49.160;8.980;2022-07-21T05:30:01;21.30;;;17.73;;
60979;SDS011;46851;49.160;8.980;2022-07-21T05:32:30;22.38;;;18.45;;
60979;SDS011;46851;49.160;8.980;2022-07-21T05:38:15;28.15;;;18.98;;
60979;SDS011;46851;49.160;8.980;2022-07-21T05:40:44;30.77;;;19.98;;
60979;SDS011;46851;49.160;8.980;2022-07-21T05:43:10;27.85;;;18.92;;
60979;SDS011;46851;49.160;8.980;2022-07-21T05:45:36;32.72;;;19.30;;
60979;SDS011;46851;49.160;8.980;2022-07-21T05:48:02;29.90;;;18.42;;
60979;SDS011;46851;49.160;8.980;2022-07-21T05:50:28;30.58;;;19.83;;
60979;SDS011;46851;49.160;8.980;2022-07-21T05:52:54;27.13;;;19.08;;
60979;SDS011;46851;49.160;8.980;2022-07-21T05:55:20;23.90;;;18.23;;
60979;SDS011;46851;49.160;8.980;2022-07-21T05:57:47;32.88;;;18.63;;
60979;SDS011;46851;49.160;8.980;2022-07-21T06:00:13;29.15;;;18.73;;
60979;SDS011;46851;49.160;8.980;2022-07-21T06:02:39;27.20;;;18.17;;
60979;SDS011;46851;49.160;8.980;2022-07-21T06:05:05;26.45;;;18.67;;
60979;SDS011;46851;49.160;8.980;2022-07-21T06:07:33;24.90;;;16.75;;
60979;SDS011;46851;49.160;8.980;2022-07-21T06:10:02;19.70;;;16.45;;
60979;SDS011;46851;49.160;8.980;2022-07-21T06:12:29;24.60;;;16.38;;
60979;SDS011;46851;49.160;8.980;2022-07-21T06:14:55;26.73;;;16.55;;
60979;SDS011;46851;49.160;8.980;2022-07-21T06:17:21;24.02;;;16.25;;
60979;SDS011;46851;49.160;8.980;2022-07-21T06:19:47;20.77;;;16.33;;
60979;SDS011;46851;49.160;8.980;2022-07-21T06:22:16;19.48;;;15.50;;
60979;SDS011;46851;49.160;8.980;2022-07-21T06:24:42;16.80;;;14.37;;
60979;SDS011;46851;49.160;8.980;2022-07-21T06:27:08;21.17;;;14.40;;
60979;SDS011;46851;49.160;8.980;2022-07-21T06:29:34;16.60;;;13.40;;
60979;SDS011;46851;49.160;8.980;2022-07-21T06:32:00;15.60;;;12.50;;
60979;SDS011;46851;49.160;8.980;2022-07-21T06:34:29;21.83;;;12.82;;
60979;SDS011;46851;49.160;8.980;2022-07-21T06:36:55;19.27;;;12.25;;
60979;SDS011;46851;49.160;8.980;2022-07-21T06:39:24;16.88;;;11.05;;
60979;SDS011;46851;49.160;8.980;2022-07-21T06:41:53;11.80;;;10.18;;
60979;SDS011;46851;49.160;8.980;2022-07-21T06:44:19;15.35;;;10.70;;
60979;SDS011;46851;49.160;8.980;2022-07-21T06:46:46;16.75;;;10.48;;
60979;SDS011;46851;49.160;8.980;2022-07-21T06:49:12;13.40;;;9.73;;
60979;SDS011;46851;49.160;8.980;2022-07-21T06:51:38;20.75;;;11.43;;
60979;SDS011;46851;49.160;8.980;2022-07-21T06:54:04;18.38;;;12.57;;
60979;SDS011;46851;49.160;8.980;2022-07-21T06:56:30;15.98;;;11.93;;
60979;SDS011;46851;49.160;8.980;2022-07-21T06:58:59;15.52;;;13.10;;
60979;SDS011;46851;49.160;8.980;2022-07-21T07:01:25;16.02;;;12.07;;
60979;SDS011;46851;49.160;8.980;2022-07-21T07:03:51;13.32;;;11.70;;
60979;SDS011;46851;49.160;8.980;2022-07-21T07:06:17;18.13;;;11.65;;
60979;SDS011;46851;49.160;8.980;2022-07-21T07:08:43;14.95;;;11.05;;
60979;SDS011;46851;49.160;8.980;2022-07-21T07:11:09;11.65;;;10.40;;
60979;SDS011;46851;49.160;8.980;2022-07-21T07:13:35;14.60;;;10.68;;
60979;SDS011;46851;49.160;8.980;2022-07-21T07:16:01;12.57;;;10.40;;
60979;SDS011;46851;49.160;8.980;2022-07-21T07:18:27;12.65;;;10.02;;
60979;SDS011;46851;49.160;8.980;2022-07-21T07:20:53;13.38;;;10.48;;
60979;SDS011;46851;49.160;8.980;2022-07-21T07:23:19;12.10;;;9.60;;
60979;SDS011;46851;49.160;8.980;2022-07-21T07:25:45;13.60;;;9.27;;
60979;SDS011;46851;49.160;8.980;2022-07-21T07:28:11;12.68;;;8.20;;
60979;SDS011;46851;49.160;8.980;2022-07-21T07:30:37;14.30;;;9.38;;
60979;SDS011;46851;49.160;8.980;2022-07-21T07:33:04;18.65;;;8.63;;
60979;SDS011;46851;49.160;8.980;2022-07-21T07:35:30;9.75;;;8.75;;
60979;SDS011;46851;49.160;8.980;2022-07-21T07:37:56;13.70;;;9.35;;
60979;SDS011;46851;49.160;8.980;2022-07-21T07:40:22;11.18;;;7.90;;
60979;SDS011;46851;49.160;8.980;2022-07-21T07:42:49;12.93;;;8.38;;
60979;SDS011;46851;49.160;8.980;2022-07-21T07:45:15;11.00;;;7.40;;
60979;SDS011;46851;49.160;8.980;2022-07-21T07:47:41;11.68;;;7.32;;
60979;SDS011;46851;49.160;8.980;2022-07-21T07:50:08;10.10;;;7.57;;
60979;SDS011;46851;49.160;8.980;2022-07-21T07:55:03;12.48;;;7.40;;
60979;SDS011;46851;49.160;8.980;2022-07-21T07:57:33;11.07;;;7.60;;
60979;SDS011;46851;49.160;8.980;2022-07-21T07:59:59;8.93;;;6.95;;
60979;SDS011;46851;49.160;8.980;2022-07-21T08:02:25;12.02;;;7.03;;
60979;SDS011;46851;49.160;8.980;2022-07-21T08:04:51;9.85;;;6.90;;
60979;SDS011;46851;49.160;8.980;2022-07-21T08:07:17;12.23;;;8.38;;
60979;SDS011;46851;49.160;8.980;2022-07-21T08:09:43;13.05;;;7.60;;
60979;SDS011;46851;49.160;8.980;2022-07-21T08:12:09;10.23;;;7.80;;
60979;SDS011;46851;49.160;8.980;2022-07-21T08:14:36;19.92;;;8.88;;
60979;SDS011;46851;49.160;8.980;2022-07-21T08:17:03;16.92;;;8.18;;
60979;SDS011;46851;49.160;8.980;2022-07-21T08:19:29;13.13;;;8.18;;
60979;SDS011;46851;49.160;8.980;2022-07-21T08:21:55;17.58;;;8.00;;
60979;SDS011;46851;49.160;8.980;2022-07-21T08:24:21;21.02;;;7.95;;
60979;SDS011;46851;49.160;8.980;2022-07-21T08:26:47;25.02;;;9.48;;
60979;SDS011;46851;49.160;8.980;2022-07-21T08:29:13;21.02;;;8.30;;
60979;SDS011;46851;49.160;8.980;2022-07-21T08:31:39;15.85;;;8.02;;
60979;SDS011;46851;49.160;8.980;2022-07-21T08:34:05;12.90;;;7.40;;
60979;SDS011;46851;49.160;8.980;2022-07-21T08:36:32;12.98;;;6.97;;
60979;SDS011;46851;49.160;8.980;2022-07-21T08:38:59;15.20;;;6.90;;
60979;SDS011;46851;49.160;8.980;2022-07-21T08:41:25;12.15;;;6.57;;
60979;SDS011;46851;49.160;8.980;2022-07-21T08:43:51;10.43;;;7.57;;
60979;SDS011;46851;49.160;8.980;2022-07-21T08:46:18;9.02;;;6.47;;
60979;SDS011;46851;49.160;8.980;2022-07-21T08:48:47;9.00;;;6.72;;
60979;SDS011;46851;49.160;8.980;2022-07-21T08:51:13;16.45;;;7.30;;
60979;SDS011;46851;49.160;8.980;2022-07-21T08:53:43;9.95;;;6.22;;
60979;SDS011;46851;49.160;8.980;2022-07-21T08:56:09;11.70;;;6.75;;
60979;SDS011;46851;49.160;8.980;2022-07-21T08:58:35;9.57;;;5.93;;
60979;SDS011;46851;49.160;8.980;2022-07-21T09:01:02;9.90;;;6.00;;
60979;SDS011;46851;49.160;8.980;2022-07-21T09:03:28;8.73;;;5.72;;
60979;SDS011;46851;49.160;8.980;2022-07-21T09:06:16;7.55;;;5.43;;
60979;SDS011;46851;49.160;8.980;2022-07-21T09:08:46;8.82;;;5.68;;
60979;SDS011;46851;49.160;8.980;2022-07-21T09:11:20;7.30;;;4.93;;
60979;SDS011;46851;49.160;8.980;2022-07-21T09:14:07;8.95;;;4.63;;
60979;SDS011;46851;49.160;8.980;2022-07-21T09:18:59;18.75;;;5.22;;
60979;SDS011;46851;49.160;8.980;2022-07-21T09:21:26;18.27;;;5.22;;
60979;SDS011;46851;49.160;8.980;2022-07-21T09:23:52;13.18;;;4.28;;
60979;SDS011;46851;49.160;8.980;2022-07-21T09:26:18;6.43;;;4.50;;
60979;SDS011;46851;49.160;8.980;2022-07-21T09:28:44;10.95;;;4.30;;
60979;SDS011;46851;49.160;8.980;2022-07-21T09:31:10;4.88;;;4.05;;
60979;SDS011;46851;49.160;8.980;2022-07-21T09:33:41;6.78;;;3.45;;
60979;SDS011;46851;49.160;8.980;2022-07-21T09:36:14;8.07;;;4.13;;
60979;SDS011;46851;49.160;8.980;2022-07-21T09:41:11;6.53;;;4.30;;
60979;SDS011;46851;49.160;8.980;2022-07-21T09:43:42;5.32;;;4.03;;
60979;SDS011;46851;49.160;8.980;2022-07-21T09:46:29;5.93;;;3.70;;
60979;SDS011;46851;49.160;8.980;2022-07-21T09:48:55;14.07;;;4.43;;
60979;SDS011;46851;49.160;8.980;2022-07-21T09:51:29;7.97;;;4.20;;
60979;SDS011;46851;49.160;8.980;2022-07-21T09:54:16;6.60;;;4.00;;
60979;SDS011;46851;49.160;8.980;2022-07-21T09:56:43;6.22;;;3.90;;
60979;SDS011;46851;49.160;8.980;2022-07-21T09:59:11;14.85;;;4.30;;
60979;SDS011;46851;49.160;8.980;2022-07-21T10:01:37;7.30;;;4.13;;
60979;SDS011;46851;49.160;8.980;2022-07-21T10:04:04;8.63;;;4.35;;
60979;SDS011;46851;49.160;8.980;2022-07-21T10:06:37;7.53;;;3.60;;
60979;SDS011;46851;49.160;8.980;2022-07-21T10:09:04;4.93;;;4.25;;
60979;SDS011;46851;49.160;8.980;2022-07-21T10:11:30;6.40;;;4.32;;
60979;SDS011;46851;49.160;8.980;2022-07-21T10:13:56;7.78;;;4.30;;
60979;SDS011;46851;49.160;8.980;2022-07-21T10:16:25;6.20;;;4.05;;
60979;SDS011;46851;49.160;8.980;2022-07-21T10:21:28;6.40;;;4.38;;
60979;SDS011;46851;49.160;8.980;2022-07-21T10:23:55;6.95;;;4.50;;
60979;SDS011;46851;49.160;8.980;2022-07-21T10:26:22;5.57;;;4.32;;
60979;SDS011;46851;49.160;8.980;2022-07-21T10:28:48;11.15;;;4.90;;
60979;SDS011;46851;49.160;8.980;2022-07-21T10:31:18;5.78;;;4.15;;
60979;SDS011;46851;49.160;8.980;2022-07-21T10:36:56;4.57;;;4.07;;
60979;SDS011;46851;49.160;8.980;2022-07-21T10:41:40;6.43;;;4.60;;
60979;SDS011;46851;49.160;8.980;2022-07-21T10:45:07;6.68;;;4.57;;
60979;SDS011;46851;49.160;8.980;2022-07-21T10:57:40;6.65;;;4.30;;
60979;SDS011;46851;49.160;8.980;2022-07-21T11:00:23;5.72;;;4.38;;
60979;SDS011;46851;49.160;8.980;2022-07-21T11:02:51;10.90;;;4.40;;
60979;SDS011;46851;49.160;8.980;2022-07-21T11:05:17;6.55;;;4.90;;
60979;SDS011;46851;49.160;8.980;2022-07-21T11:10:30;8.23;;;4.88;;
60979;SDS011;46851;49.160;8.980;2022-07-21T11:13:00;11.45;;;5.00;;
60979;SDS011;46851;49.160;8.980;2022-07-21T11:15:42;6.10;;;4.40;;
60979;SDS011;46851;49.160;8.980;2022-07-21T11:18:10;5.53;;;4.00;;
60979;SDS011;46851;49.160;8.980;2022-07-21T11:20:38;7.05;;;4.60;;
60979;SDS011;46851;49.160;8.980;2022-07-21T11:23:04;5.90;;;4.10;;
60979;SDS011;46851;49.160;8.980;2022-07-21T11:25:30;13.23;;;4.50;;
60979;SDS011;46851;49.160;8.980;2022-07-21T11:27:59;15.60;;;6.75;;
60979;SDS011;46851;49.160;8.980;2022-07-21T11:30:25;7.55;;;4.57;;
60979;SDS011;46851;49.160;8.980;2022-07-21T11:32:51;7.05;;;4.70;;
60979;SDS011;46851;49.160;8.980;2022-07-21T11:35:18;4.75;;;4.25;;
60979;SDS011;46851;49.160;8.980;2022-07-21T11:37:47;9.43;;;4.00;;
60979;SDS011;46851;49.160;8.980;2022-07-21T11:42:45;5.03;;;3.45;;
60979;SDS011;46851;49.160;8.980;2022-07-21T11:45:12;4.28;;;3.65;;
60979;SDS011;46851;49.160;8.980;2022-07-21T11:47:38;8.25;;;3.72;;
60979;SDS011;46851;49.160;8.980;2022-07-21T11:50:05;8.63;;;4.38;;
60979;SDS011;46851;49.160;8.980;2022-07-21T11:52:33;8.50;;;4.22;;
60979;SDS011;46851;49.160;8.980;2022-07-21T11:55:02;5.63;;;3.83;;
60979;SDS011;46851;49.160;8.980;2022-07-21T11:57:28;6.38;;;4.20;;
60979;SDS011;46851;49.160;8.980;2022-07-21T11:59:55;5.00;;;4.20;;
60979;SDS011;46851;49.160;8.980;2022-07-21T12:02:23;4.78;;;3.45;;
60979;SDS011;46851;49.160;8.980;2022-07-21T12:05:05;16.65;;;4.15;;
60979;SDS011;46851;49.160;8.980;2022-07-21T12:07:47;15.85;;;5.22;;
60979;SDS011;46851;49.160;8.980;2022-07-21T12:10:14;6.55;;;3.97;;
60979;SDS011;46851;49.160;8.980;2022-07-21T12:12:46;5.13;;;3.70;;
60979;SDS011;46851;49.160;8.980;2022-07-21T12:15:19;5.45;;;3.35;;
60979;SDS011;46851;49.160;8.980;2022-07-21T12:18:09;4.72;;;3.80;;
60979;SDS011;46851;49.160;8.980;2022-07-21T12:20:42;9.90;;;4.78;;
60979;SDS011;46851;49.160;8.980;2022-07-21T12:23:22;6.43;;;3.80;;
60979;SDS011;46851;49.160;8.980;2022-07-21T12:25:48;4.72;;;3.38;;
60979;SDS011;46851;49.160;8.980;2022-07-21T12:28:14;6.43;;;3.67;;
60979;SDS011;46851;49.160;8.980;2022-07-21T12:30:41;13.32;;;4.28;;
60979;SDS011;46851;49.160;8.980;2022-07-21T12:35:35;13.98;;;4.05;;
60979;SDS011;46851;49.160;8.980;2022-07-21T12:40:28;9.65;;;3.85;;
60979;SDS011;46851;49.160;8.980;2022-07-21T12:43:04;11.82;;;3.88;;
60979;SDS011;46851;49.160;8.980;2022-07-21T12:48:09;14.65;;;4.15;;
60979;SDS011;46851;49.160;8.980;2022-07-21T12:50:35;10.70;;;4.03;;
60979;SDS011;46851;49.160;8.980;2022-07-21T12:53:11;11.57;;;3.92;;
60979;SDS011;46851;49.160;8.980;2022-07-21T12:55:37;7.05;;;4.50;;
60979;SDS011;46851;49.160;8.980;2022-07-21T12:58:06;13.45;;;4.40;;
60979;SDS011;46851;49.160;8.980;2022-07-21T13:00:32;8.40;;;3.90;;
60979;SDS011;46851;49.160;8.980;2022-07-21T13:02:58;12.63;;;3.97;;
60979;SDS011;46851;49.160;8.980;2022-07-21T13:05:25;11.25;;;4.07;;
60979;SDS011;46851;49.160;8.980;2022-07-21T13:07:52;17.38;;;4.22;;
60979;SDS011;46851;49.160;8.980;2022-07-21T13:10:18;29.73;;;4.72;;
60979;SDS011;46851;49.160;8.980;2022-07-21T13:12:45;27.30;;;4.65;;
60979;SDS011;46851;49.160;8.980;2022-07-21T13:15:12;15.50;;;4.22;;
60979;SDS011;46851;49.160;8.980;2022-07-21T13:17:38;32.90;;;4.95;;
60979;SDS011;46851;49.160;8.980;2022-07-21T13:20:07;20.83;;;5.50;;
60979;SDS011;46851;49.160;8.980;2022-07-21T13:22:33;12.20;;;3.95;;
60979;SDS011;46851;49.160;8.980;2022-07-21T13:24:59;17.25;;;4.25;;
60979;SDS011;46851;49.160;8.980;2022-07-21T13:27:26;15.50;;;4.55;;
60979;SDS011;46851;49.160;8.980;2022-07-21T13:29:52;7.10;;;3.85;;
60979;SDS011;46851;49.160;8.980;2022-07-21T13:32:18;11.98;;;3.80;;
60979;SDS011;46851;49.160;8.980;2022-07-21T13:34:44;7.35;;;3.63;;
60979;SDS011;46851;49.160;8.980;2022-07-21T13:37:16;3.58;;;3.28;;
60979;SDS011;46851;49.160;8.980;2022-07-21T13:39:42;4.85;;;3.50;;
60979;SDS011;46851;49.160;8.980;2022-07-21T13:42:09;7.93;;;4.07;;
60979;SDS011;46851;49.160;8.980;2022-07-21T13:44:35;22.20;;;4.63;;
60979;SDS011;46851;49.160;8.980;2022-07-21T13:47:03;13.20;;;4.07;;
60979;SDS011;46851;49.160;8.980;2022-07-21T13:49:29;14.38;;;4.13;;
60979;SDS011;46851;49.160;8.980;2022-07-21T13:51:55;14.57;;;4.10;;
60979;SDS011;46851;49.160;8.980;2022-07-21T13:54:21;4.93;;;3.40;;
60979;SDS011;46851;49.160;8.980;2022-07-21T13:56:47;6.22;;;3.60;;
60979;SDS011;46851;49.160;8.980;2022-07-21T13:59:13;14.82;;;3.90;;
60979;SDS011;46851;49.160;8.980;2022-07-21T14:01:39;10.18;;;3.22;;
60979;SDS011;46851;49.160;8.980;2022-07-21T14:04:05;6.63;;;4.15;;
60979;SDS011;46851;49.160;8.980;2022-07-21T14:06:31;4.43;;;3.53;;
60979;SDS011;46851;49.160;8.980;2022-07-21T14:08:57;7.93;;;3.70;;
60979;SDS011;46851;49.160;8.980;2022-07-21T14:11:23;6.78;;;3.08;;
60979;SDS011;46851;49.160;8.980;2022-07-21T14:13:52;4.93;;;3.28;;
60979;SDS011;46851;49.160;8.980;2022-07-21T14:16:18;5.78;;;3.67;;
60979;SDS011;46851;49.160;8.980;2022-07-21T14:18:44;5.78;;;3.55;;
60979;SDS011;46851;49.160;8.980;2022-07-21T14:21:10;21.27;;;4.57;;
60979;SDS011;46851;49.160;8.980;2022-07-21T14:23:37;17.95;;;4.00;;
60979;SDS011;46851;49.160;8.980;2022-07-21T14:26:03;12.93;;;4.20;;
60979;SDS011;46851;49.160;8.980;2022-07-21T14:28:29;7.13;;;3.70;;
60979;SDS011;46851;49.160;8.980;2022-07-21T14:30:55;7.35;;;3.90;;
60979;SDS011;46851;49.160;8.980;2022-07-21T14:33:21;6.22;;;4.07;;
60979;SDS011;46851;49.160;8.980;2022-07-21T14:35:47;13.10;;;3.70;;
60979;SDS011;46851;49.160;8.980;2022-07-21T14:38:13;21.55;;;4.60;;
60979;SDS011;46851;49.160;8.980;2022-07-21T14:40:40;17.67;;;4.30;;
60979;SDS011;46851;49.160;8.980;2022-07-21T14:43:09;9.60;;;4.22;;
60979;SDS011;46851;49.160;8.980;2022-07-21T14:45:35;8.27;;;3.92;;
60979;SDS011;46851;49.160;8.980;2022-07-21T14:48:02;8.90;;;4.22;;
60979;SDS011;46851;49.160;8.980;2022-07-21T14:50:28;12.85;;;4.00;;
60979;SDS011;46851;49.160;8.980;2022-07-21T14:52:55;11.73;;;3.92;;
60979;SDS011;46851;49.160;8.980;2022-07-21T14:55:21;11.55;;;4.40;;
60979;SDS011;46851;49.160;8.980;2022-07-21T14:57:49;15.73;;;4.35;;
60979;SDS011;46851;49.160;8.980;2022-07-21T15:00:16;7.20;;;4.07;;
60979;SDS011;46851;49.160;8.980;2022-07-21T15:02:42;12.25;;;4.10;;
60979;SDS011;46851;49.160;8.980;2022-07-21T15:05:08;6.43;;;4.10;;
60979;SDS011;46851;49.160;8.980;2022-07-21T15:07:34;4.55;;;3.90;;
60979;SDS011;46851;49.160;8.980;2022-07-21T15:10:00;7.55;;;3.75;;
60979;SDS011;46851;49.160;8.980;2022-07-21T15:12:26;10.82;;;4.10;;
60979;SDS011;46851;49.160;8.980;2022-07-21T15:14:52;7.90;;;3.67;;